createdAt,value
2022-09-15T07:46:32.332Z,16.88
2022-09-15T07:47:32.329Z,16.88
2022-09-15T07:48:32.251Z,22.50
2022-09-15T07:49:32.478Z,28.13
2022-09-15T07:50:32.228Z,28.13
2022-09-15T07:51:32.208Z,33.75
2022-09-15T07:52:32.197Z,39.38
2022-09-15T07:53:32.190Z,39.38
2022-09-15T07:54:32.166Z,39.38
2022-09-15T07:55:32.155Z,39.38
2022-09-15T07:56:32.141Z,39.38
2022-09-15T07:57:32.125Z,39.38
2022-09-15T07:58:32.113Z,39.38
2022-09-15T07:59:32.099Z,39.38
2022-09-15T08:00:32.159Z,39.38
2022-09-15T08:01:32.172Z,45.00
2022-09-15T08:02:32.086Z,45.00
2022-09-15T08:03:32.043Z,45.00
2022-09-15T08:04:32.028Z,45.00
2022-09-15T08:05:35.951Z,50.63
2022-09-15T08:06:32.734Z,50.63
2022-09-15T08:07:31.985Z,45.00
2022-09-15T08:08:32.003Z,50.63
2022-09-15T08:09:31.956Z,45.00
2022-09-15T08:10:31.945Z,39.38
2022-09-15T08:11:31.938Z,39.38
2022-09-15T08:12:31.926Z,39.38
2022-09-15T08:13:31.931Z,33.75
2022-09-15T08:14:31.911Z,39.38
2022-09-15T08:15:31.879Z,39.38
2022-09-15T08:16:31.905Z,39.38
2022-09-15T08:17:31.857Z,39.38
2022-09-15T08:18:31.849Z,39.38
2022-09-15T08:19:31.823Z,39.38
2022-09-15T08:20:31.821Z,39.38
2022-09-15T08:21:31.792Z,39.38
2022-09-15T08:22:31.782Z,33.75
2022-09-15T08:23:31.769Z,33.75
2022-09-15T08:24:31.782Z,33.75
2022-09-15T08:25:31.771Z,33.75
2022-09-15T08:26:31.732Z,33.75
2022-09-15T08:27:31.737Z,33.75
2022-09-15T08:28:31.702Z,33.75
2022-09-15T08:29:31.686Z,33.75
2022-09-15T08:30:31.699Z,33.75
2022-09-15T08:31:31.693Z,39.38
2022-09-15T08:32:31.646Z,33.75
2022-09-15T08:33:31.633Z,33.75
2022-09-15T08:34:31.622Z,39.38
2022-09-15T08:35:31.632Z,39.38
2022-09-15T08:36:31.592Z,39.38
2022-09-15T08:37:31.576Z,39.38
2022-09-15T08:38:31.565Z,39.38
2022-09-15T08:39:31.592Z,45.00
2022-09-15T08:40:31.635Z,45.00
2022-09-15T08:41:31.532Z,39.38
2022-09-15T08:42:31.514Z,45.00
2022-09-15T08:43:31.528Z,45.00
2022-09-15T08:44:31.491Z,45.00
2022-09-15T08:45:31.469Z,45.00
2022-09-15T08:46:31.541Z,45.00
2022-09-15T08:47:31.455Z,45.00
2022-09-15T08:48:31.428Z,45.00
2022-09-15T08:49:50.546Z,45.00
2022-09-15T08:50:31.492Z,39.38
2022-09-15T08:51:31.388Z,39.38
2022-09-15T08:52:31.374Z,50.63
2022-09-15T08:53:31.365Z,56.25
2022-09-15T08:54:31.355Z,56.25
2022-09-15T08:55:31.363Z,50.63
2022-09-15T08:56:31.332Z,56.25
2022-09-15T08:57:31.312Z,56.25
2022-09-15T08:58:31.297Z,50.63
2022-09-15T08:59:31.286Z,67.50
2022-09-15T09:00:31.337Z,61.88
2022-09-15T09:01:31.339Z,56.25
2022-09-15T09:02:31.291Z,67.50
2022-09-15T09:03:31.267Z,84.38
2022-09-15T09:04:31.222Z,67.50
2022-09-15T09:05:31.225Z,61.88
2022-09-15T09:06:31.195Z,73.13
2022-09-15T09:07:31.187Z,73.13
2022-09-15T09:08:31.176Z,67.50
2022-09-15T09:09:31.156Z,56.25
2022-09-15T09:10:31.141Z,61.88
2022-09-15T09:11:31.178Z,56.25
2022-09-15T09:12:31.111Z,67.50
2022-09-15T09:13:35.437Z,61.88
2022-09-15T09:14:31.084Z,56.25
2022-09-15T09:15:31.123Z,39.38
2022-09-15T09:16:31.115Z,50.63
2022-09-15T09:17:31.050Z,56.25
2022-09-15T09:18:31.034Z,61.88
2022-09-15T09:19:32.316Z,56.25
2022-09-15T09:20:31.010Z,61.88
2022-09-15T09:21:31.015Z,67.50
2022-09-15T09:22:31.018Z,61.88
2022-09-15T09:23:30.972Z,78.75
2022-09-15T09:24:30.967Z,50.63
2022-09-15T09:25:30.947Z,45.00
2022-09-15T09:26:30.959Z,39.38
2022-09-15T09:27:30.923Z,33.75
2022-09-15T09:28:30.917Z,33.75
2022-09-15T09:29:30.893Z,33.75
2022-09-15T09:30:30.888Z,33.75
2022-09-15T09:31:30.977Z,28.13
2022-09-15T09:32:30.852Z,39.38
2022-09-15T09:33:30.842Z,39.38
2022-09-15T09:34:30.829Z,50.63
2022-09-15T09:35:30.815Z,33.75
2022-09-15T09:36:30.870Z,22.50
2022-09-15T09:37:30.793Z,22.50
2022-09-15T09:38:30.781Z,22.50
2022-09-15T09:39:30.770Z,22.50
2022-09-15T09:40:30.827Z,16.88
2022-09-15T09:41:30.737Z,16.88
2022-09-15T09:42:30.760Z,22.50
2022-09-15T09:43:30.857Z,22.50
2022-09-15T09:44:30.699Z,22.50
2022-09-15T09:45:30.686Z,22.50
2022-09-15T09:46:30.703Z,22.50
2022-09-15T09:47:30.687Z,28.13
2022-09-15T09:48:30.647Z,28.13
2022-09-15T09:49:30.635Z,28.13
2022-09-15T09:50:30.620Z,39.38
2022-09-15T09:51:30.610Z,50.63
2022-09-15T09:52:30.592Z,50.63
2022-09-15T09:53:30.607Z,56.25
2022-09-15T09:54:30.566Z,50.63
2022-09-15T09:55:30.554Z,45.00
2022-09-15T09:56:30.537Z,39.38
2022-09-15T09:57:30.530Z,45.00
2022-09-15T09:58:30.513Z,45.00
2022-09-15T09:59:30.507Z,45.00
2022-09-15T10:00:30.485Z,45.00
2022-09-15T10:01:30.497Z,56.25
2022-09-15T10:02:30.460Z,56.25
2022-09-15T10:03:32.948Z,67.50
2022-09-15T10:04:30.462Z,84.38
2022-09-15T10:05:30.422Z,112.50
2022-09-15T10:06:30.403Z,84.38
2022-09-15T10:07:30.425Z,73.13
2022-09-15T10:08:30.377Z,61.88
2022-09-15T10:09:33.390Z,61.88
2022-09-15T10:10:30.358Z,56.25
2022-09-15T10:11:30.344Z,61.88
2022-09-15T10:12:30.363Z,84.38
2022-09-15T10:13:30.317Z,50.63
2022-09-15T10:14:30.317Z,56.25
2022-09-15T10:15:30.320Z,73.13
2022-09-15T10:16:30.337Z,56.25
2022-09-15T10:17:30.266Z,45.00
2022-09-15T10:18:30.256Z,56.25
2022-09-15T10:19:30.247Z,84.38
2022-09-15T10:20:30.230Z,67.50
2022-09-15T10:21:30.216Z,67.50
2022-09-15T10:22:30.201Z,50.63
2022-09-15T10:23:30.196Z,67.50
2022-09-15T10:24:30.174Z,73.13
2022-09-15T10:25:49.306Z,61.88
2022-09-15T10:26:30.147Z,61.88
2022-09-15T10:27:30.199Z,50.63
2022-09-15T10:28:30.122Z,61.88
2022-09-15T10:29:30.110Z,67.50
2022-09-15T10:30:30.098Z,61.88
2022-09-15T10:31:30.224Z,56.25
2022-09-15T10:32:30.073Z,39.38
2022-09-15T10:33:30.064Z,45.00
2022-09-15T10:34:30.049Z,45.00
2022-09-15T10:35:30.050Z,45.00
2022-09-15T10:36:30.024Z,45.00
2022-09-15T10:37:30.009Z,45.00
2022-09-15T10:38:29.999Z,50.63
2022-09-15T10:39:29.993Z,50.63
2022-09-15T10:40:30.087Z,50.63
2022-09-15T10:41:29.960Z,39.38
2022-09-15T10:42:29.957Z,33.75
2022-09-15T10:43:29.934Z,22.50
2022-09-15T10:44:29.917Z,28.13
2022-09-15T10:45:30.009Z,28.13
2022-09-15T10:46:29.897Z,22.50
2022-09-15T10:47:29.885Z,16.88
2022-09-15T10:48:29.875Z,22.50
2022-09-15T10:49:29.858Z,22.50
2022-09-15T10:50:29.859Z,22.50
2022-09-15T10:51:29.857Z,22.50
2022-09-15T10:52:29.824Z,22.50
2022-09-15T10:53:29.855Z,28.13
2022-09-15T10:54:29.789Z,28.13
2022-09-15T10:55:51.140Z,28.13
2022-09-15T10:56:29.810Z,28.13
2022-09-15T10:57:29.762Z,33.75
2022-09-15T10:58:29.737Z,45.00
2022-09-15T10:59:29.728Z,33.75
2022-09-15T11:00:29.715Z,39.38
2022-09-15T11:01:29.730Z,33.75
2022-09-15T11:02:29.775Z,33.75
2022-09-15T11:03:29.674Z,39.38
2022-09-15T11:04:29.665Z,45.00
2022-09-15T11:05:29.651Z,39.38
2022-09-15T11:06:29.637Z,45.00
2022-09-15T11:07:29.662Z,39.38
2022-09-15T11:08:29.612Z,61.88
2022-09-15T11:09:29.597Z,50.63
2022-09-15T11:10:29.589Z,50.63
2022-09-15T11:11:29.582Z,56.25
2022-09-15T11:12:29.673Z,56.25
2022-09-15T11:13:29.611Z,56.25
2022-09-15T11:14:29.532Z,50.63
2022-09-15T11:15:29.524Z,45.00
2022-09-15T11:16:29.578Z,50.63
2022-09-15T11:17:29.497Z,67.50
2022-09-15T11:18:29.483Z,61.88
2022-09-15T11:19:29.472Z,50.63
2022-09-15T11:20:29.460Z,56.25
2022-09-15T11:21:29.453Z,50.63
2022-09-15T11:22:29.452Z,56.25
2022-09-15T11:23:29.454Z,50.63
2022-09-15T11:24:29.412Z,45.00
2022-09-15T11:25:29.441Z,45.00
2022-09-15T11:26:29.384Z,56.25
2022-09-15T11:27:29.378Z,50.63
2022-09-15T11:28:29.358Z,39.38
2022-09-15T11:29:29.347Z,50.63
2022-09-15T11:30:29.380Z,45.00
2022-09-15T11:31:29.416Z,50.63
2022-09-15T11:32:29.314Z,67.50
2022-09-15T11:33:29.302Z,61.88
2022-09-15T11:34:29.310Z,50.63
2022-09-15T11:35:29.273Z,56.25
2022-09-15T11:36:29.259Z,50.63
2022-09-15T11:37:29.248Z,73.13
2022-09-15T11:38:29.267Z,61.88
2022-09-15T11:39:29.251Z,61.88
2022-09-15T11:40:29.350Z,61.88
2022-09-15T11:41:29.201Z,56.25
2022-09-15T11:42:29.230Z,61.88
2022-09-15T11:43:29.185Z,33.75
2022-09-15T11:44:29.168Z,39.38
2022-09-15T11:45:29.156Z,45.00
2022-09-15T11:46:29.232Z,33.75
2022-09-15T11:47:29.161Z,45.00
2022-09-15T11:48:29.114Z,39.38
2022-09-15T11:49:29.109Z,56.25
2022-09-15T11:50:29.091Z,50.63
2022-09-15T11:51:29.094Z,39.38
2022-09-15T11:52:29.113Z,33.75
2022-09-15T11:53:29.058Z,33.75
2022-09-15T11:54:31.328Z,28.13
2022-09-15T11:55:29.031Z,22.50
2022-09-15T11:56:29.014Z,16.88
2022-09-15T11:57:29.005Z,16.88
2022-09-15T11:58:28.992Z,16.88
2022-09-15T11:59:28.975Z,16.88
2022-09-15T12:00:28.973Z,16.88
2022-09-15T12:01:28.980Z,22.50
2022-09-15T12:02:29.076Z,22.50
2022-09-15T12:03:28.967Z,22.50
2022-09-15T12:04:28.916Z,28.13
2022-09-15T12:05:28.919Z,28.13
2022-09-15T12:06:28.890Z,33.75
2022-09-15T12:07:28.895Z,33.75
2022-09-15T12:08:28.897Z,33.75
2022-09-15T12:09:28.862Z,39.38
2022-09-15T12:10:28.844Z,45.00
2022-09-15T12:11:28.846Z,39.38
2022-09-15T12:12:30.709Z,45.00
2022-09-15T12:13:28.843Z,56.25
2022-09-15T12:14:28.951Z,50.63
2022-09-15T12:15:28.782Z,50.63
2022-09-15T12:16:28.766Z,56.25
2022-09-15T12:17:28.767Z,45.00
2022-09-15T12:18:39.212Z,39.38
2022-09-15T12:19:28.740Z,50.63
2022-09-15T12:20:28.743Z,61.88
2022-09-15T12:21:28.731Z,56.25
2022-09-15T12:22:28.698Z,56.25
2022-09-15T12:23:28.683Z,45.00
2022-09-15T12:24:28.681Z,50.63
2022-09-15T12:25:28.685Z,45.00
2022-09-15T12:26:28.648Z,39.38
2022-09-15T12:27:28.639Z,28.13
2022-09-15T12:28:28.657Z,16.88
2022-09-15T12:29:28.607Z,22.50
2022-09-15T12:30:28.660Z,22.50
2022-09-15T12:31:28.628Z,16.88
2022-09-15T12:32:28.571Z,5.63
2022-09-15T12:33:28.593Z,5.63
2022-09-15T12:34:28.566Z,5.63
2022-09-15T12:35:28.565Z,5.63
2022-09-15T12:36:28.525Z,5.63
2022-09-15T12:37:28.555Z,5.63
2022-09-15T12:38:28.500Z,5.63
2022-09-15T12:39:28.489Z,5.63
2022-09-15T12:40:28.644Z,5.63
2022-09-15T12:41:28.460Z,5.63
2022-09-15T12:42:28.452Z,5.63
2022-09-15T12:43:28.442Z,5.63
2022-09-15T12:44:28.422Z,5.63
2022-09-15T12:45:28.446Z,5.63
2022-09-15T12:46:28.477Z,5.63
2022-09-15T12:47:28.455Z,5.63
2022-09-15T12:48:28.539Z,5.63
2022-09-15T12:49:28.370Z,5.63
2022-09-15T12:50:28.353Z,5.63
2022-09-15T12:51:28.342Z,5.63
2022-09-15T12:52:28.384Z,5.63
2022-09-15T12:53:28.373Z,5.63
2022-09-15T12:54:28.314Z,5.63
2022-09-15T12:55:28.296Z,5.63
2022-09-15T12:56:28.279Z,5.63
2022-09-15T12:57:28.274Z,5.63
2022-09-15T12:58:28.276Z,5.63
2022-09-15T12:59:28.242Z,5.63
2022-09-15T13:00:28.241Z,5.63
2022-09-15T13:01:28.260Z,5.63
2022-09-15T13:02:28.350Z,5.63
2022-09-15T13:03:28.302Z,5.63
2022-09-15T13:04:28.185Z,5.63
2022-09-15T13:05:28.175Z,5.63
2022-09-15T13:06:28.160Z,5.63
2022-09-15T13:07:28.144Z,5.63
2022-09-15T13:08:28.195Z,5.63
2022-09-15T13:09:28.131Z,5.63
2022-09-15T13:10:28.106Z,5.63
2022-09-15T13:11:28.094Z,5.63
2022-09-15T13:12:28.087Z,5.63
2022-09-15T13:13:29.996Z,5.63
2022-09-15T13:14:28.061Z,5.63
2022-09-15T13:15:28.072Z,5.63
2022-09-15T13:16:28.035Z,5.63
2022-09-15T13:17:28.017Z,5.63
2022-09-15T13:18:28.022Z,5.63
2022-09-15T13:19:28.018Z,5.63
2022-09-15T13:20:27.983Z,11.25
2022-09-15T13:21:27.994Z,11.25
2022-09-15T13:22:27.955Z,11.25
2022-09-15T13:23:27.946Z,16.88
2022-09-15T13:24:27.961Z,16.88
2022-09-15T13:25:27.923Z,16.88
2022-09-15T13:26:27.906Z,16.88
2022-09-15T13:27:27.909Z,11.25
2022-09-15T13:28:27.932Z,16.88
2022-09-15T13:29:27.918Z,11.25
2022-09-15T13:30:27.865Z,11.25
2022-09-15T13:31:27.875Z,16.88
2022-09-15T13:32:27.835Z,11.25
2022-09-15T13:35:01.225Z,11.25
2022-09-15T13:35:27.846Z,16.88
2022-09-15T13:38:01.942Z,16.88
2022-09-15T13:38:31.689Z,22.50
2022-09-15T13:39:27.768Z,22.50
2022-09-15T13:40:27.793Z,28.13
2022-09-15T13:41:27.751Z,28.13
2022-09-15T13:42:27.736Z,28.13
2022-09-15T13:43:27.690Z,28.13
2022-09-15T13:44:27.880Z,28.13
2022-09-15T13:45:27.669Z,28.13
2022-09-15T13:46:27.751Z,28.13
2022-09-15T13:47:27.641Z,28.13
2022-09-15T13:48:27.647Z,28.13
2022-09-15T13:49:27.615Z,22.50
2022-09-15T13:50:27.625Z,22.50
2022-09-15T13:51:27.654Z,22.50
2022-09-15T13:52:27.615Z,22.50
2022-09-15T13:53:27.578Z,22.50
2022-09-15T13:54:27.572Z,22.50
2022-09-15T13:55:27.543Z,22.50
2022-09-15T13:56:27.544Z,22.50
2022-09-15T13:59:01.629Z,28.13
2022-09-15T13:59:27.858Z,28.13
2022-09-15T14:00:27.479Z,28.13
2022-09-15T14:01:28.203Z,28.13
2022-09-15T14:02:29.179Z,28.13
2022-09-15T14:03:27.481Z,28.13
2022-09-15T14:04:27.443Z,28.13
2022-09-15T14:05:27.419Z,22.50
2022-09-15T14:06:27.409Z,16.88
2022-09-15T14:07:27.477Z,11.25
2022-09-15T14:08:27.385Z,11.25
2022-09-15T14:09:27.369Z,11.25
2022-09-15T14:10:27.360Z,11.25
2022-09-15T14:11:27.348Z,11.25
2022-09-15T14:12:27.417Z,16.88
2022-09-15T14:13:27.331Z,16.88
2022-09-15T14:14:27.315Z,16.88
2022-09-15T14:15:27.299Z,16.88
2022-09-15T14:16:27.328Z,16.88
2022-09-15T14:17:27.275Z,16.88
2022-09-15T14:18:27.291Z,16.88
2022-09-15T14:19:27.250Z,11.25
2022-09-15T14:20:27.235Z,11.25
2022-09-15T14:21:27.221Z,11.25
2022-09-15T14:22:27.221Z,11.25
2022-09-15T14:23:27.376Z,5.63
2022-09-15T14:24:27.196Z,5.63
2022-09-15T14:25:27.207Z,5.63
2022-09-15T14:26:27.165Z,5.63
2022-09-15T14:27:27.147Z,0.00
2022-09-15T14:28:31.303Z,0.00
2022-09-15T14:29:27.172Z,0.00
2022-09-15T14:30:27.118Z,0.00
2022-09-15T14:31:27.155Z,0.00
2022-09-15T14:32:27.085Z,0.00
2022-09-15T14:33:27.076Z,0.00
2022-09-15T14:34:27.062Z,0.00
2022-09-15T14:35:27.083Z,0.00
2022-09-15T14:36:27.035Z,0.00
2022-09-15T14:37:27.075Z,0.00
2022-09-15T14:38:27.069Z,5.63
2022-09-15T14:39:27.001Z,0.00
2022-09-15T14:40:27.076Z,0.00
2022-09-15T14:41:27.001Z,0.00
2022-09-15T14:42:26.977Z,0.00
2022-09-15T14:43:26.948Z,0.00
2022-09-15T14:46:26.947Z,0.00
2022-09-15T14:47:26.898Z,0.00
2022-09-15T14:48:26.901Z,0.00
2022-09-15T14:49:26.873Z,0.00
2022-09-15T14:50:30.363Z,0.00
2022-09-15T14:51:26.873Z,5.63
2022-09-15T14:52:26.847Z,5.63
2022-09-15T14:53:26.832Z,5.63
2022-09-15T14:54:26.830Z,5.63
2022-09-15T14:55:26.799Z,5.63
2022-09-15T14:56:26.823Z,5.63
2022-09-15T14:57:30.881Z,5.63
2022-09-15T14:58:26.764Z,5.63
2022-09-15T14:59:26.769Z,11.25
2022-09-15T15:00:26.769Z,22.50
2022-09-15T15:01:26.818Z,11.25
2022-09-15T15:02:26.819Z,11.25
2022-09-15T15:03:26.699Z,11.25
2022-09-15T15:04:26.688Z,11.25
2022-09-15T15:05:26.671Z,16.88
2022-09-15T15:06:30.038Z,16.88
2022-09-15T15:07:26.663Z,16.88
2022-09-15T15:08:26.638Z,16.88
2022-09-15T15:09:26.632Z,16.88
2022-09-15T15:10:26.615Z,16.88
2022-09-15T15:11:26.599Z,22.50
2022-09-15T15:12:26.613Z,22.50
2022-09-15T15:13:26.569Z,22.50
2022-09-15T15:14:26.563Z,22.50
2022-09-15T15:15:26.563Z,28.13
2022-09-15T15:16:26.606Z,50.63
2022-09-15T15:17:26.538Z,168.75
2022-09-15T15:18:30.983Z,73.13
2022-09-15T15:19:26.525Z,106.88
2022-09-15T15:20:26.493Z,84.38
2022-09-15T15:21:26.482Z,84.38
2022-09-15T15:22:26.467Z,39.38
2022-09-15T15:23:26.449Z,39.38
2022-09-15T15:24:26.446Z,101.25
2022-09-15T15:25:26.421Z,39.38
2022-09-15T15:26:26.411Z,78.75
2022-09-15T15:27:26.442Z,28.13
2022-09-15T15:28:26.388Z,22.50
2022-09-15T15:29:26.427Z,22.50
2022-09-15T15:30:26.368Z,16.88
2022-09-15T15:31:26.531Z,11.25
2022-09-15T15:32:26.341Z,11.25
2022-09-15T15:33:26.351Z,11.25
2022-09-15T15:34:26.315Z,11.25
2022-09-15T15:35:26.383Z,11.25
2022-09-15T15:36:26.292Z,11.25
2022-09-15T15:37:26.278Z,11.25
2022-09-15T15:38:26.267Z,11.25
2022-09-15T15:39:26.254Z,11.25
2022-09-15T15:40:26.330Z,11.25
2022-09-15T15:41:26.237Z,11.25
2022-09-15T15:42:26.257Z,11.25
2022-09-15T15:43:26.217Z,11.25
2022-09-15T15:44:26.209Z,11.25
2022-09-15T15:45:26.253Z,11.25
2022-09-15T15:46:26.181Z,11.25
2022-09-15T15:47:26.191Z,11.25
2022-09-15T15:48:26.145Z,11.25
2022-09-15T15:49:26.168Z,11.25
2022-09-15T15:50:26.129Z,11.25
2022-09-15T15:51:26.107Z,11.25
2022-09-15T15:52:26.102Z,11.25
2022-09-15T15:53:26.141Z,11.25
2022-09-15T15:54:26.080Z,11.25
2022-09-15T15:55:26.059Z,11.25
2022-09-15T15:56:26.050Z,11.25
2022-09-15T15:57:26.058Z,11.25
2022-09-15T15:58:26.027Z,11.25
2022-09-15T15:59:26.082Z,11.25
2022-09-15T16:00:25.998Z,5.63
2022-09-15T16:01:26.026Z,5.63
2022-09-15T16:02:26.128Z,5.63
2022-09-15T16:03:25.972Z,11.25
2022-09-15T16:04:25.946Z,11.25
2022-09-15T16:05:25.955Z,11.25
2022-09-15T16:06:25.923Z,11.25
2022-09-15T16:07:27.916Z,16.88
2022-09-15T16:08:25.902Z,16.88
2022-09-15T16:09:25.883Z,16.88
2022-09-15T16:10:25.875Z,16.88
2022-09-15T16:11:25.858Z,16.88
2022-09-15T16:12:25.871Z,16.88
2022-09-15T16:13:25.833Z,16.88
2022-09-15T16:14:25.853Z,16.88
2022-09-15T16:15:25.805Z,16.88
2022-09-15T16:16:25.929Z,28.13
2022-09-15T16:17:25.780Z,33.75
2022-09-15T16:18:25.779Z,33.75
2022-09-15T16:19:25.757Z,22.50
2022-09-15T16:20:25.774Z,22.50
2022-09-15T16:21:25.734Z,16.88
2022-09-15T16:22:25.718Z,16.88
2022-09-15T16:23:25.729Z,22.50
2022-09-15T16:24:25.694Z,28.13
2022-09-15T16:25:25.703Z,22.50
2022-09-15T16:26:25.673Z,28.13
2022-09-15T16:27:25.652Z,22.50
2022-09-15T16:28:25.667Z,22.50
2022-09-15T16:29:25.631Z,22.50
2022-09-15T16:30:25.617Z,22.50
2022-09-15T16:31:25.635Z,11.25
2022-09-15T16:32:25.602Z,11.25
2022-09-15T16:33:25.576Z,5.63
2022-09-15T16:34:25.570Z,5.63
2022-09-15T16:35:25.580Z,5.63
2022-09-15T16:36:25.543Z,5.63
2022-09-15T16:37:25.521Z,5.63
2022-09-15T16:38:25.533Z,5.63
2022-09-15T16:39:25.507Z,5.63
2022-09-15T16:40:25.606Z,5.63
2022-09-15T16:41:25.474Z,5.63
2022-09-15T16:42:25.646Z,5.63
2022-09-15T16:43:25.443Z,5.63
2022-09-15T16:44:25.435Z,5.63
2022-09-15T16:45:25.417Z,5.63
2022-09-15T16:46:25.461Z,5.63
2022-09-15T16:47:25.411Z,0.00
2022-09-15T16:48:25.410Z,0.00
2022-09-15T16:49:25.366Z,5.63
2022-09-15T16:50:25.373Z,5.63
2022-09-15T16:51:29.969Z,5.63
2022-09-15T16:52:25.331Z,5.63
2022-09-15T16:53:25.316Z,5.63
2022-09-15T16:54:25.307Z,5.63
2022-09-15T16:55:25.347Z,5.63
2022-09-15T16:56:25.318Z,5.63
2022-09-15T16:57:25.261Z,5.63
2022-09-15T16:58:25.260Z,5.63
2022-09-15T16:59:25.239Z,5.63
2022-09-15T17:00:25.272Z,5.63
2022-09-15T17:01:25.236Z,5.63
2022-09-15T17:02:25.247Z,5.63
2022-09-15T17:03:25.207Z,5.63
2022-09-15T17:04:25.170Z,5.63
2022-09-15T17:05:25.156Z,5.63
2022-09-15T17:06:25.172Z,5.63
2022-09-15T17:07:25.130Z,0.00
2022-09-15T17:08:25.146Z,0.00
2022-09-15T17:09:25.101Z,0.00
2022-09-15T17:10:25.093Z,0.00
2022-09-15T17:11:25.143Z,0.00
2022-09-15T17:12:25.069Z,0.00
2022-09-15T17:13:27.768Z,0.00
2022-09-15T17:14:25.039Z,0.00
2022-09-15T17:15:25.022Z,0.00
2022-09-15T17:16:25.035Z,0.00
2022-09-15T17:17:25.046Z,0.00
2022-09-15T17:18:24.983Z,0.00
2022-09-15T17:19:25.025Z,0.00
2022-09-15T17:20:24.954Z,0.00
2022-09-15T17:21:24.944Z,0.00
2022-09-15T17:22:24.926Z,0.00
2022-09-15T17:23:24.945Z,0.00
2022-09-15T17:24:24.902Z,0.00
2022-09-15T17:25:24.886Z,0.00
2022-09-15T17:26:30.558Z,0.00
2022-09-15T17:27:24.890Z,0.00
2022-09-15T17:28:24.965Z,0.00
2022-09-15T17:29:24.834Z,0.00
2022-09-15T17:30:24.839Z,0.00
2022-09-15T17:31:24.943Z,0.00
2022-09-15T17:32:24.825Z,0.00
2022-09-15T17:33:24.867Z,0.00
2022-09-15T17:34:24.791Z,0.00
2022-09-15T17:35:24.769Z,0.00
2022-09-15T17:36:24.817Z,0.00
2022-09-15T17:37:24.726Z,0.00
2022-09-15T17:38:24.709Z,0.00
2022-09-15T17:39:24.723Z,0.00
2022-09-15T17:40:24.745Z,0.00
2022-09-15T17:41:24.671Z,0.00
2022-09-15T17:42:24.658Z,0.00
2022-09-15T17:43:24.986Z,0.00
2022-09-15T17:44:24.653Z,0.00
2022-09-15T17:45:24.616Z,0.00
2022-09-15T17:46:24.647Z,0.00
2022-09-15T17:47:24.614Z,0.00
2022-09-15T17:48:24.591Z,0.00
2022-09-15T17:49:24.561Z,0.00
2022-09-15T17:50:24.626Z,0.00
2022-09-15T17:51:24.532Z,0.00
2022-09-15T17:52:24.544Z,0.00
2022-09-15T17:53:24.505Z,0.00
2022-09-15T17:54:24.510Z,0.00
2022-09-15T17:55:24.488Z,0.00
2022-09-15T17:56:24.463Z,0.00
2022-09-15T17:57:24.508Z,0.00
2022-09-15T17:58:24.436Z,0.00
